sensor_id;sensor_type;location;lat;lon;timestamp;P1;durP1;ratioP1;P2;durP2;ratioP2
46363;SDS011;32071;49.036;9.344;2023-12-20T00:02:16;11.80;;;7.37;;
46363;SDS011;32071;49.036;9.344;2023-12-20T00:04:41;10.10;;;6.70;;
46363;SDS011;32071;49.036;9.344;2023-12-20T00:07:07;11.30;;;7.17;;
46363;SDS011;32071;49.036;9.344;2023-12-20T00:09:32;11.03;;;6.53;;
46363;SDS011;32071;49.036;9.344;2023-12-20T00:11:58;11.07;;;7.13;;
46363;SDS011;32071;49.036;9.344;2023-12-20T00:14:24;11.30;;;7.50;;
46363;SDS011;32071;49.036;9.344;2023-12-20T00:16:49;10.90;;;7.50;;
46363;SDS011;32071;49.036;9.344;2023-12-20T00:19:15;11.10;;;7.83;;
46363;SDS011;32071;49.036;9.344;2023-12-20T00:21:40;10.30;;;7.53;;
46363;SDS011;32071;49.036;9.344;2023-12-20T00:24:06;12.90;;;7.67;;
46363;SDS011;32071;49.036;9.344;2023-12-20T00:26:31;12.53;;;7.40;;
46363;SDS011;32071;49.036;9.344;2023-12-20T00:28:57;9.63;;;6.80;;
46363;SDS011;32071;49.036;9.344;2023-12-20T00:31:22;11.07;;;7.10;;
46363;SDS011;32071;49.036;9.344;2023-12-20T00:33:48;11.63;;;7.27;;
46363;SDS011;32071;49.036;9.344;2023-12-20T00:36:13;11.87;;;7.30;;
46363;SDS011;32071;49.036;9.344;2023-12-20T00:38:39;13.40;;;7.37;;
46363;SDS011;32071;49.036;9.344;2023-12-20T00:41:05;14.07;;;7.13;;
46363;SDS011;32071;49.036;9.344;2023-12-20T00:43:30;10.80;;;6.90;;
46363;SDS011;32071;49.036;9.344;2023-12-20T00:45:56;12.10;;;7.50;;
46363;SDS011;32071;49.036;9.344;2023-12-20T00:48:22;11.87;;;7.40;;
46363;SDS011;32071;49.036;9.344;2023-12-20T00:50:47;10.33;;;6.30;;
46363;SDS011;32071;49.036;9.344;2023-12-20T00:53:13;10.00;;;6.87;;
46363;SDS011;32071;49.036;9.344;2023-12-20T00:55:38;9.10;;;6.73;;
46363;SDS011;32071;49.036;9.344;2023-12-20T00:58:04;10.33;;;7.80;;
46363;SDS011;32071;49.036;9.344;2023-12-20T01:00:29;12.47;;;8.20;;
46363;SDS011;32071;49.036;9.344;2023-12-20T01:02:55;14.27;;;7.03;;
46363;SDS011;32071;49.036;9.344;2023-12-20T01:05:21;12.87;;;7.50;;
46363;SDS011;32071;49.036;9.344;2023-12-20T01:07:48;10.00;;;6.70;;
46363;SDS011;32071;49.036;9.344;2023-12-20T01:10:14;9.07;;;7.23;;
46363;SDS011;32071;49.036;9.344;2023-12-20T01:12:39;9.50;;;6.53;;
46363;SDS011;32071;49.036;9.344;2023-12-20T01:15:05;12.30;;;7.00;;
46363;SDS011;32071;49.036;9.344;2023-12-20T01:17:31;10.57;;;6.57;;
46363;SDS011;32071;49.036;9.344;2023-12-20T01:19:56;10.73;;;7.10;;
46363;SDS011;32071;49.036;9.344;2023-12-20T01:22:23;9.67;;;6.40;;
46363;SDS011;32071;49.036;9.344;2023-12-20T01:24:48;12.10;;;6.60;;
46363;SDS011;32071;49.036;9.344;2023-12-20T01:27:14;12.03;;;8.00;;
46363;SDS011;32071;49.036;9.344;2023-12-20T01:29:40;16.17;;;8.60;;
46363;SDS011;32071;49.036;9.344;2023-12-20T01:32:05;12.60;;;8.50;;
46363;SDS011;32071;49.036;9.344;2023-12-20T01:34:31;13.80;;;8.33;;
46363;SDS011;32071;49.036;9.344;2023-12-20T01:36:57;12.07;;;8.60;;
46363;SDS011;32071;49.036;9.344;2023-12-20T01:39:22;12.20;;;8.70;;
46363;SDS011;32071;49.036;9.344;2023-12-20T01:41:48;11.43;;;7.33;;
46363;SDS011;32071;49.036;9.344;2023-12-20T01:44:14;9.73;;;6.60;;
46363;SDS011;32071;49.036;9.344;2023-12-20T01:46:39;13.70;;;7.90;;
46363;SDS011;32071;49.036;9.344;2023-12-20T01:49:06;10.90;;;6.20;;
46363;SDS011;32071;49.036;9.344;2023-12-20T01:51:32;10.83;;;6.80;;
46363;SDS011;32071;49.036;9.344;2023-12-20T01:53:58;10.77;;;6.67;;
46363;SDS011;32071;49.036;9.344;2023-12-20T01:56:25;10.87;;;8.10;;
46363;SDS011;32071;49.036;9.344;2023-12-20T01:58:53;10.43;;;7.10;;
46363;SDS011;32071;49.036;9.344;2023-12-20T02:01:20;13.57;;;7.10;;
46363;SDS011;32071;49.036;9.344;2023-12-20T02:03:46;10.83;;;7.77;;
46363;SDS011;32071;49.036;9.344;2023-12-20T02:06:12;10.00;;;6.97;;
46363;SDS011;32071;49.036;9.344;2023-12-20T02:08:38;12.37;;;7.30;;
46363;SDS011;32071;49.036;9.344;2023-12-20T02:11:04;10.53;;;7.20;;
46363;SDS011;32071;49.036;9.344;2023-12-20T02:13:30;12.73;;;7.10;;
46363;SDS011;32071;49.036;9.344;2023-12-20T02:15:56;10.73;;;7.57;;
46363;SDS011;32071;49.036;9.344;2023-12-20T02:18:22;14.13;;;9.60;;
46363;SDS011;32071;49.036;9.344;2023-12-20T02:20:47;15.90;;;10.40;;
46363;SDS011;32071;49.036;9.344;2023-12-20T02:23:13;16.83;;;10.53;;
46363;SDS011;32071;49.036;9.344;2023-12-20T02:25:39;13.33;;;9.60;;
46363;SDS011;32071;49.036;9.344;2023-12-20T02:28:04;18.40;;;10.83;;
46363;SDS011;32071;49.036;9.344;2023-12-20T02:30:31;12.63;;;8.03;;
46363;SDS011;32071;49.036;9.344;2023-12-20T02:32:57;9.00;;;6.70;;
46363;SDS011;32071;49.036;9.344;2023-12-20T02:35:24;6.67;;;5.13;;
46363;SDS011;32071;49.036;9.344;2023-12-20T02:37:50;6.40;;;4.17;;
46363;SDS011;32071;49.036;9.344;2023-12-20T02:40:16;2.63;;;1.83;;
46363;SDS011;32071;49.036;9.344;2023-12-20T02:42:41;3.37;;;2.00;;
46363;SDS011;32071;49.036;9.344;2023-12-20T02:45:07;4.07;;;2.30;;
46363;SDS011;32071;49.036;9.344;2023-12-20T02:47:33;1.60;;;1.50;;
46363;SDS011;32071;49.036;9.344;2023-12-20T02:49:58;2.33;;;2.13;;
46363;SDS011;32071;49.036;9.344;2023-12-20T02:52:24;1.20;;;1.10;;
46363;SDS011;32071;49.036;9.344;2023-12-20T02:54:50;2.03;;;1.17;;
46363;SDS011;32071;49.036;9.344;2023-12-20T02:57:15;2.90;;;1.43;;
46363;SDS011;32071;49.036;9.344;2023-12-20T02:59:41;2.20;;;1.53;;
46363;SDS011;32071;49.036;9.344;2023-12-20T03:02:07;1.27;;;1.10;;
46363;SDS011;32071;49.036;9.344;2023-12-20T03:04:32;1.50;;;1.30;;
46363;SDS011;32071;49.036;9.344;2023-12-20T03:06:58;1.00;;;0.90;;
46363;SDS011;32071;49.036;9.344;2023-12-20T03:09:23;1.30;;;1.20;;
46363;SDS011;32071;49.036;9.344;2023-12-20T03:11:49;1.27;;;1.00;;
46363;SDS011;32071;49.036;9.344;2023-12-20T03:14:14;1.80;;;1.43;;
46363;SDS011;32071;49.036;9.344;2023-12-20T03:16:40;1.50;;;1.27;;
46363;SDS011;32071;49.036;9.344;2023-12-20T03:19:06;1.43;;;1.10;;
46363;SDS011;32071;49.036;9.344;2023-12-20T03:21:31;2.03;;;1.60;;
46363;SDS011;32071;49.036;9.344;2023-12-20T03:23:57;2.00;;;1.20;;
46363;SDS011;32071;49.036;9.344;2023-12-20T03:26:22;1.60;;;1.40;;
46363;SDS011;32071;49.036;9.344;2023-12-20T03:28:48;1.17;;;1.10;;
46363;SDS011;32071;49.036;9.344;2023-12-20T03:31:14;3.00;;;1.70;;
46363;SDS011;32071;49.036;9.344;2023-12-20T03:33:39;1.37;;;1.27;;
46363;SDS011;32071;49.036;9.344;2023-12-20T03:36:05;1.63;;;1.47;;
46363;SDS011;32071;49.036;9.344;2023-12-20T03:38:31;4.20;;;1.20;;
46363;SDS011;32071;49.036;9.344;2023-12-20T03:40:56;1.00;;;0.90;;
46363;SDS011;32071;49.036;9.344;2023-12-20T03:43:22;0.80;;;0.80;;
46363;SDS011;32071;49.036;9.344;2023-12-20T03:45:47;1.00;;;0.90;;
46363;SDS011;32071;49.036;9.344;2023-12-20T03:48:13;1.10;;;1.00;;
46363;SDS011;32071;49.036;9.344;2023-12-20T03:50:38;1.03;;;0.87;;
46363;SDS011;32071;49.036;9.344;2023-12-20T03:53:04;1.13;;;0.90;;
46363;SDS011;32071;49.036;9.344;2023-12-20T03:55:29;2.27;;;0.90;;
46363;SDS011;32071;49.036;9.344;2023-12-20T03:57:55;1.10;;;1.00;;
46363;SDS011;32071;49.036;9.344;2023-12-20T04:00:20;1.07;;;0.97;;
46363;SDS011;32071;49.036;9.344;2023-12-20T04:02:46;2.63;;;1.30;;
46363;SDS011;32071;49.036;9.344;2023-12-20T04:05:11;1.23;;;1.13;;
46363;SDS011;32071;49.036;9.344;2023-12-20T04:07:37;1.60;;;1.30;;
46363;SDS011;32071;49.036;9.344;2023-12-20T04:10:03;1.50;;;1.10;;
46363;SDS011;32071;49.036;9.344;2023-12-20T04:12:29;1.27;;;1.03;;
46363;SDS011;32071;49.036;9.344;2023-12-20T04:14:58;1.50;;;1.30;;
46363;SDS011;32071;49.036;9.344;2023-12-20T04:17:24;2.00;;;1.37;;
46363;SDS011;32071;49.036;9.344;2023-12-20T04:19:49;2.27;;;1.40;;
46363;SDS011;32071;49.036;9.344;2023-12-20T04:22:16;2.67;;;1.30;;
46363;SDS011;32071;49.036;9.344;2023-12-20T04:24:42;1.50;;;1.00;;
46363;SDS011;32071;49.036;9.344;2023-12-20T04:27:08;2.17;;;1.10;;
46363;SDS011;32071;49.036;9.344;2023-12-20T04:29:34;2.70;;;1.30;;
46363;SDS011;32071;49.036;9.344;2023-12-20T04:31:59;1.90;;;1.30;;
46363;SDS011;32071;49.036;9.344;2023-12-20T04:34:25;3.90;;;2.37;;
46363;SDS011;32071;49.036;9.344;2023-12-20T04:36:51;4.50;;;2.07;;
46363;SDS011;32071;49.036;9.344;2023-12-20T04:39:16;5.63;;;2.90;;
46363;SDS011;32071;49.036;9.344;2023-12-20T04:41:42;3.90;;;1.83;;
46363;SDS011;32071;49.036;9.344;2023-12-20T04:44:07;1.77;;;1.40;;
46363;SDS011;32071;49.036;9.344;2023-12-20T04:46:33;7.03;;;2.17;;
46363;SDS011;32071;49.036;9.344;2023-12-20T04:48:58;1.87;;;1.77;;
46363;SDS011;32071;49.036;9.344;2023-12-20T04:51:24;3.60;;;1.90;;
46363;SDS011;32071;49.036;9.344;2023-12-20T04:53:49;1.50;;;1.20;;
46363;SDS011;32071;49.036;9.344;2023-12-20T04:56:15;1.90;;;1.40;;
46363;SDS011;32071;49.036;9.344;2023-12-20T04:58:42;1.37;;;1.27;;
46363;SDS011;32071;49.036;9.344;2023-12-20T05:01:08;1.33;;;1.23;;
46363;SDS011;32071;49.036;9.344;2023-12-20T05:03:34;1.57;;;1.47;;
46363;SDS011;32071;49.036;9.344;2023-12-20T05:06:00;2.23;;;2.00;;
46363;SDS011;32071;49.036;9.344;2023-12-20T05:08:25;2.30;;;1.90;;
46363;SDS011;32071;49.036;9.344;2023-12-20T05:10:52;2.00;;;1.87;;
46363;SDS011;32071;49.036;9.344;2023-12-20T05:13:19;4.30;;;2.40;;
46363;SDS011;32071;49.036;9.344;2023-12-20T05:15:45;4.60;;;2.27;;
46363;SDS011;32071;49.036;9.344;2023-12-20T05:18:10;4.23;;;2.80;;
46363;SDS011;32071;49.036;9.344;2023-12-20T05:20:36;4.40;;;3.03;;
46363;SDS011;32071;49.036;9.344;2023-12-20T05:23:02;3.57;;;2.40;;
46363;SDS011;32071;49.036;9.344;2023-12-20T05:25:27;3.77;;;3.07;;
46363;SDS011;32071;49.036;9.344;2023-12-20T05:27:53;3.47;;;2.30;;
46363;SDS011;32071;49.036;9.344;2023-12-20T05:30:19;3.33;;;2.83;;
46363;SDS011;32071;49.036;9.344;2023-12-20T05:32:44;5.03;;;2.70;;
46363;SDS011;32071;49.036;9.344;2023-12-20T05:35:10;4.07;;;3.20;;
46363;SDS011;32071;49.036;9.344;2023-12-20T05:37:35;5.60;;;3.87;;
46363;SDS011;32071;49.036;9.344;2023-12-20T05:40:01;6.17;;;4.23;;
46363;SDS011;32071;49.036;9.344;2023-12-20T05:42:26;3.47;;;2.83;;
46363;SDS011;32071;49.036;9.344;2023-12-20T05:44:52;16.57;;;8.53;;
46363;SDS011;32071;49.036;9.344;2023-12-20T05:47:17;18.57;;;10.37;;
46363;SDS011;32071;49.036;9.344;2023-12-20T05:49:43;12.67;;;6.17;;
46363;SDS011;32071;49.036;9.344;2023-12-20T05:52:09;13.50;;;7.67;;
46363;SDS011;32071;49.036;9.344;2023-12-20T05:54:35;18.03;;;9.30;;
46363;SDS011;32071;49.036;9.344;2023-12-20T05:57:00;16.00;;;7.63;;
46363;SDS011;32071;49.036;9.344;2023-12-20T05:59:26;5.60;;;4.57;;
46363;SDS011;32071;49.036;9.344;2023-12-20T06:01:52;11.57;;;6.10;;
46363;SDS011;32071;49.036;9.344;2023-12-20T06:04:17;5.47;;;3.90;;
46363;SDS011;32071;49.036;9.344;2023-12-20T06:06:43;8.27;;;4.87;;
46363;SDS011;32071;49.036;9.344;2023-12-20T06:09:09;7.70;;;5.07;;
46363;SDS011;32071;49.036;9.344;2023-12-20T06:11:35;9.33;;;5.50;;
46363;SDS011;32071;49.036;9.344;2023-12-20T06:14:01;5.30;;;4.20;;
46363;SDS011;32071;49.036;9.344;2023-12-20T06:16:26;4.40;;;3.10;;
46363;SDS011;32071;49.036;9.344;2023-12-20T06:18:55;7.27;;;4.83;;
46363;SDS011;32071;49.036;9.344;2023-12-20T06:21:20;4.40;;;2.80;;
46363;SDS011;32071;49.036;9.344;2023-12-20T06:23:46;3.07;;;2.67;;
46363;SDS011;32071;49.036;9.344;2023-12-20T06:26:11;3.27;;;2.63;;
46363;SDS011;32071;49.036;9.344;2023-12-20T06:28:37;3.90;;;2.87;;
46363;SDS011;32071;49.036;9.344;2023-12-20T06:31:02;3.07;;;2.30;;
46363;SDS011;32071;49.036;9.344;2023-12-20T06:33:28;2.83;;;2.33;;
46363;SDS011;32071;49.036;9.344;2023-12-20T06:35:56;3.70;;;2.80;;
46363;SDS011;32071;49.036;9.344;2023-12-20T06:38:21;3.50;;;3.20;;
46363;SDS011;32071;49.036;9.344;2023-12-20T06:40:47;3.90;;;2.70;;
46363;SDS011;32071;49.036;9.344;2023-12-20T06:43:13;4.40;;;3.23;;
46363;SDS011;32071;49.036;9.344;2023-12-20T06:45:38;5.27;;;4.40;;
46363;SDS011;32071;49.036;9.344;2023-12-20T06:48:04;6.07;;;5.00;;
46363;SDS011;32071;49.036;9.344;2023-12-20T06:50:30;5.47;;;4.10;;
46363;SDS011;32071;49.036;9.344;2023-12-20T06:52:56;6.10;;;4.20;;
46363;SDS011;32071;49.036;9.344;2023-12-20T06:55:21;4.37;;;3.53;;
46363;SDS011;32071;49.036;9.344;2023-12-20T06:57:47;7.30;;;5.27;;
46363;SDS011;32071;49.036;9.344;2023-12-20T07:00:12;6.07;;;4.67;;
46363;SDS011;32071;49.036;9.344;2023-12-20T07:02:38;6.30;;;4.73;;
46363;SDS011;32071;49.036;9.344;2023-12-20T07:05:04;6.00;;;5.30;;
46363;SDS011;32071;49.036;9.344;2023-12-20T07:07:30;7.63;;;5.70;;
46363;SDS011;32071;49.036;9.344;2023-12-20T07:09:55;6.90;;;6.00;;
46363;SDS011;32071;49.036;9.344;2023-12-20T07:12:21;6.80;;;5.50;;
46363;SDS011;32071;49.036;9.344;2023-12-20T07:14:46;6.60;;;5.03;;
46363;SDS011;32071;49.036;9.344;2023-12-20T07:17:12;14.53;;;8.30;;
46363;SDS011;32071;49.036;9.344;2023-12-20T07:19:39;9.27;;;6.57;;
46363;SDS011;32071;49.036;9.344;2023-12-20T07:22:05;11.23;;;6.23;;
46363;SDS011;32071;49.036;9.344;2023-12-20T07:24:31;9.80;;;6.53;;
46363;SDS011;32071;49.036;9.344;2023-12-20T07:26:58;11.20;;;8.10;;
46363;SDS011;32071;49.036;9.344;2023-12-20T07:29:25;10.90;;;7.90;;
46363;SDS011;32071;49.036;9.344;2023-12-20T07:31:50;10.47;;;6.37;;
46363;SDS011;32071;49.036;9.344;2023-12-20T07:34:17;11.33;;;7.63;;
46363;SDS011;32071;49.036;9.344;2023-12-20T07:36:43;9.70;;;6.70;;
46363;SDS011;32071;49.036;9.344;2023-12-20T07:39:08;9.67;;;6.30;;
46363;SDS011;32071;49.036;9.344;2023-12-20T07:41:34;9.03;;;6.23;;
46363;SDS011;32071;49.036;9.344;2023-12-20T07:43:59;8.70;;;5.47;;
46363;SDS011;32071;49.036;9.344;2023-12-20T07:46:25;10.20;;;6.60;;
46363;SDS011;32071;49.036;9.344;2023-12-20T07:48:50;12.47;;;8.20;;
46363;SDS011;32071;49.036;9.344;2023-12-20T07:51:16;11.87;;;8.53;;
46363;SDS011;32071;49.036;9.344;2023-12-20T07:53:42;10.57;;;7.30;;
46363;SDS011;32071;49.036;9.344;2023-12-20T07:56:17;19.33;;;12.87;;
46363;SDS011;32071;49.036;9.344;2023-12-20T07:58:44;15.70;;;10.80;;
46363;SDS011;32071;49.036;9.344;2023-12-20T08:01:10;18.40;;;10.53;;
46363;SDS011;32071;49.036;9.344;2023-12-20T08:03:36;12.87;;;8.20;;
46363;SDS011;32071;49.036;9.344;2023-12-20T08:06:02;16.47;;;7.57;;
46363;SDS011;32071;49.036;9.344;2023-12-20T08:08:28;11.70;;;8.10;;
46363;SDS011;32071;49.036;9.344;2023-12-20T08:10:53;11.80;;;7.63;;
46363;SDS011;32071;49.036;9.344;2023-12-20T08:13:19;10.30;;;7.37;;
46363;SDS011;32071;49.036;9.344;2023-12-20T08:15:44;9.40;;;7.30;;
46363;SDS011;32071;49.036;9.344;2023-12-20T08:18:10;12.40;;;7.90;;
46363;SDS011;32071;49.036;9.344;2023-12-20T08:20:36;11.57;;;7.40;;
46363;SDS011;32071;49.036;9.344;2023-12-20T08:23:01;10.70;;;7.70;;
46363;SDS011;32071;49.036;9.344;2023-12-20T08:25:27;10.33;;;6.77;;
46363;SDS011;32071;49.036;9.344;2023-12-20T08:27:53;11.70;;;7.30;;
46363;SDS011;32071;49.036;9.344;2023-12-20T08:30:18;12.00;;;8.00;;
46363;SDS011;32071;49.036;9.344;2023-12-20T08:32:46;11.83;;;7.40;;
46363;SDS011;32071;49.036;9.344;2023-12-20T08:35:15;13.30;;;8.53;;
46363;SDS011;32071;49.036;9.344;2023-12-20T08:37:41;10.90;;;7.47;;
46363;SDS011;32071;49.036;9.344;2023-12-20T08:40:06;12.80;;;8.40;;
46363;SDS011;32071;49.036;9.344;2023-12-20T08:42:32;7.40;;;6.10;;
46363;SDS011;32071;49.036;9.344;2023-12-20T08:44:58;7.40;;;5.60;;
46363;SDS011;32071;49.036;9.344;2023-12-20T08:47:24;10.17;;;6.90;;
46363;SDS011;32071;49.036;9.344;2023-12-20T08:49:49;15.43;;;5.73;;
46363;SDS011;32071;49.036;9.344;2023-12-20T08:52:15;11.70;;;5.20;;
46363;SDS011;32071;49.036;9.344;2023-12-20T08:54:40;6.87;;;5.20;;
46363;SDS011;32071;49.036;9.344;2023-12-20T08:57:06;8.10;;;4.93;;
46363;SDS011;32071;49.036;9.344;2023-12-20T08:59:32;4.90;;;4.40;;
46363;SDS011;32071;49.036;9.344;2023-12-20T09:01:58;5.07;;;3.87;;
46363;SDS011;32071;49.036;9.344;2023-12-20T09:04:23;5.77;;;3.40;;
46363;SDS011;32071;49.036;9.344;2023-12-20T09:06:50;4.90;;;3.20;;
46363;SDS011;32071;49.036;9.344;2023-12-20T09:09:15;8.57;;;3.23;;
46363;SDS011;32071;49.036;9.344;2023-12-20T09:11:41;4.70;;;3.30;;
46363;SDS011;32071;49.036;9.344;2023-12-20T09:14:07;5.23;;;3.40;;
46363;SDS011;32071;49.036;9.344;2023-12-20T09:16:32;3.50;;;2.97;;
46363;SDS011;32071;49.036;9.344;2023-12-20T09:18:58;3.77;;;2.70;;
46363;SDS011;32071;49.036;9.344;2023-12-20T09:21:25;3.80;;;3.30;;
46363;SDS011;32071;49.036;9.344;2023-12-20T09:23:51;7.23;;;3.70;;
46363;SDS011;32071;49.036;9.344;2023-12-20T09:26:16;6.67;;;3.30;;
46363;SDS011;32071;49.036;9.344;2023-12-20T09:28:42;7.20;;;2.80;;
46363;SDS011;32071;49.036;9.344;2023-12-20T09:31:07;4.00;;;3.00;;
46363;SDS011;32071;49.036;9.344;2023-12-20T09:33:33;3.20;;;2.90;;
46363;SDS011;32071;49.036;9.344;2023-12-20T09:35:59;4.13;;;3.03;;
46363;SDS011;32071;49.036;9.344;2023-12-20T09:38:24;5.27;;;3.60;;
46363;SDS011;32071;49.036;9.344;2023-12-20T09:40:50;5.17;;;3.50;;
46363;SDS011;32071;49.036;9.344;2023-12-20T09:43:15;6.37;;;4.60;;
46363;SDS011;32071;49.036;9.344;2023-12-20T09:45:45;5.30;;;3.80;;
46363;SDS011;32071;49.036;9.344;2023-12-20T09:48:12;2.93;;;2.73;;
46363;SDS011;32071;49.036;9.344;2023-12-20T09:50:41;3.93;;;2.83;;
46363;SDS011;32071;49.036;9.344;2023-12-20T09:53:07;5.23;;;3.73;;
46363;SDS011;32071;49.036;9.344;2023-12-20T09:55:35;16.40;;;12.83;;
46363;SDS011;32071;49.036;9.344;2023-12-20T09:58:01;7.73;;;5.97;;
46363;SDS011;32071;49.036;9.344;2023-12-20T10:00:27;7.30;;;5.03;;
46363;SDS011;32071;49.036;9.344;2023-12-20T10:05:27;6.90;;;4.00;;
46363;SDS011;32071;49.036;9.344;2023-12-20T10:07:53;5.30;;;3.20;;
46363;SDS011;32071;49.036;9.344;2023-12-20T10:10:20;3.40;;;2.40;;
46363;SDS011;32071;49.036;9.344;2023-12-20T10:13:05;6.30;;;3.80;;
46363;SDS011;32071;49.036;9.344;2023-12-20T10:15:33;5.10;;;2.70;;
46363;SDS011;32071;49.036;9.344;2023-12-20T10:17:58;6.73;;;2.77;;
46363;SDS011;32071;49.036;9.344;2023-12-20T10:20:25;5.07;;;2.60;;
46363;SDS011;32071;49.036;9.344;2023-12-20T10:22:51;6.60;;;2.30;;
46363;SDS011;32071;49.036;9.344;2023-12-20T10:25:18;5.13;;;2.97;;
46363;SDS011;32071;49.036;9.344;2023-12-20T10:27:45;8.30;;;3.20;;
46363;SDS011;32071;49.036;9.344;2023-12-20T10:30:11;6.13;;;4.17;;
46363;SDS011;32071;49.036;9.344;2023-12-20T10:32:37;8.27;;;2.90;;
46363;SDS011;32071;49.036;9.344;2023-12-20T10:35:02;8.17;;;3.03;;
46363;SDS011;32071;49.036;9.344;2023-12-20T10:37:28;3.37;;;2.23;;
46363;SDS011;32071;49.036;9.344;2023-12-20T10:39:54;4.80;;;2.77;;
46363;SDS011;32071;49.036;9.344;2023-12-20T10:42:24;5.00;;;2.13;;
46363;SDS011;32071;49.036;9.344;2023-12-20T10:44:51;5.00;;;1.90;;
46363;SDS011;32071;49.036;9.344;2023-12-20T10:47:19;4.83;;;2.30;;
46363;SDS011;32071;49.036;9.344;2023-12-20T10:49:45;6.50;;;2.10;;
46363;SDS011;32071;49.036;9.344;2023-12-20T10:52:11;3.23;;;2.30;;
46363;SDS011;32071;49.036;9.344;2023-12-20T10:54:38;10.30;;;3.03;;
46363;SDS011;32071;49.036;9.344;2023-12-20T10:57:05;3.20;;;2.30;;
46363;SDS011;32071;49.036;9.344;2023-12-20T10:59:35;3.43;;;1.70;;
46363;SDS011;32071;49.036;9.344;2023-12-20T11:02:02;5.23;;;2.17;;
46363;SDS011;32071;49.036;9.344;2023-12-20T11:04:35;2.33;;;1.50;;
46363;SDS011;32071;49.036;9.344;2023-12-20T11:07:32;2.70;;;1.67;;
46363;SDS011;32071;49.036;9.344;2023-12-20T11:10:09;4.90;;;2.03;;
46363;SDS011;32071;49.036;9.344;2023-12-20T11:12:49;2.80;;;1.80;;
46363;SDS011;32071;49.036;9.344;2023-12-20T11:15:19;3.50;;;2.37;;
46363;SDS011;32071;49.036;9.344;2023-12-20T11:17:46;6.27;;;1.90;;
46363;SDS011;32071;49.036;9.344;2023-12-20T11:20:19;6.47;;;2.07;;
46363;SDS011;32071;49.036;9.344;2023-12-20T11:22:52;2.97;;;1.30;;
46363;SDS011;32071;49.036;9.344;2023-12-20T11:25:18;3.97;;;1.67;;
46363;SDS011;32071;49.036;9.344;2023-12-20T11:27:44;4.53;;;2.10;;
46363;SDS011;32071;49.036;9.344;2023-12-20T11:30:41;4.70;;;2.20;;
46363;SDS011;32071;49.036;9.344;2023-12-20T11:33:14;4.23;;;1.90;;
46363;SDS011;32071;49.036;9.344;2023-12-20T11:35:41;6.53;;;2.47;;
46363;SDS011;32071;49.036;9.344;2023-12-20T11:38:08;4.37;;;2.40;;
46363;SDS011;32071;49.036;9.344;2023-12-20T11:40:35;3.73;;;2.10;;
46363;SDS011;32071;49.036;9.344;2023-12-20T11:43:00;2.57;;;1.80;;
46363;SDS011;32071;49.036;9.344;2023-12-20T11:45:27;4.87;;;2.20;;
46363;SDS011;32071;49.036;9.344;2023-12-20T11:47:53;4.90;;;2.30;;
46363;SDS011;32071;49.036;9.344;2023-12-20T11:50:19;3.87;;;2.07;;
46363;SDS011;32071;49.036;9.344;2023-12-20T11:52:46;4.03;;;1.90;;
46363;SDS011;32071;49.036;9.344;2023-12-20T11:55:12;2.83;;;2.00;;
46363;SDS011;32071;49.036;9.344;2023-12-20T11:57:38;2.43;;;2.17;;
46363;SDS011;32071;49.036;9.344;2023-12-20T12:00:04;8.00;;;4.40;;
46363;SDS011;32071;49.036;9.344;2023-12-20T12:02:31;4.43;;;1.90;;
46363;SDS011;32071;49.036;9.344;2023-12-20T12:04:56;3.90;;;2.50;;
46363;SDS011;32071;49.036;9.344;2023-12-20T12:07:23;3.97;;;2.57;;
46363;SDS011;32071;49.036;9.344;2023-12-20T12:09:49;3.93;;;2.80;;
46363;SDS011;32071;49.036;9.344;2023-12-20T12:12:15;6.40;;;3.63;;
46363;SDS011;32071;49.036;9.344;2023-12-20T12:14:42;5.70;;;2.70;;
46363;SDS011;32071;49.036;9.344;2023-12-20T12:17:10;4.50;;;2.53;;
46363;SDS011;32071;49.036;9.344;2023-12-20T12:19:39;7.63;;;3.07;;
46363;SDS011;32071;49.036;9.344;2023-12-20T12:24:33;7.13;;;3.27;;
46363;SDS011;32071;49.036;9.344;2023-12-20T12:26:59;4.70;;;2.90;;
46363;SDS011;32071;49.036;9.344;2023-12-20T12:29:24;6.07;;;3.00;;
46363;SDS011;32071;49.036;9.344;2023-12-20T12:31:50;9.83;;;3.43;;
46363;SDS011;32071;49.036;9.344;2023-12-20T12:34:17;6.10;;;2.73;;
46363;SDS011;32071;49.036;9.344;2023-12-20T12:36:43;7.30;;;2.80;;
46363;SDS011;32071;49.036;9.344;2023-12-20T12:39:12;7.43;;;3.30;;
46363;SDS011;32071;49.036;9.344;2023-12-20T12:41:40;2.80;;;2.50;;
46363;SDS011;32071;49.036;9.344;2023-12-20T12:44:05;3.63;;;2.57;;
46363;SDS011;32071;49.036;9.344;2023-12-20T12:46:31;3.10;;;2.00;;
46363;SDS011;32071;49.036;9.344;2023-12-20T12:48:57;6.10;;;2.30;;
46363;SDS011;32071;49.036;9.344;2023-12-20T12:51:23;12.53;;;2.40;;
46363;SDS011;32071;49.036;9.344;2023-12-20T12:53:48;4.77;;;2.20;;
46363;SDS011;32071;49.036;9.344;2023-12-20T12:56:14;3.57;;;2.13;;
46363;SDS011;32071;49.036;9.344;2023-12-20T12:58:40;3.43;;;2.10;;
46363;SDS011;32071;49.036;9.344;2023-12-20T13:01:06;6.80;;;2.80;;
46363;SDS011;32071;49.036;9.344;2023-12-20T13:03:32;7.43;;;3.23;;
46363;SDS011;32071;49.036;9.344;2023-12-20T13:05:59;6.80;;;3.77;;
46363;SDS011;32071;49.036;9.344;2023-12-20T13:08:24;9.27;;;3.33;;
46363;SDS011;32071;49.036;9.344;2023-12-20T13:10:50;6.70;;;2.70;;
46363;SDS011;32071;49.036;9.344;2023-12-20T13:13:16;6.37;;;2.93;;
46363;SDS011;32071;49.036;9.344;2023-12-20T13:15:41;5.60;;;2.43;;
46363;SDS011;32071;49.036;9.344;2023-12-20T13:18:07;8.30;;;3.00;;
46363;SDS011;32071;49.036;9.344;2023-12-20T13:20:33;3.77;;;2.10;;
46363;SDS011;32071;49.036;9.344;2023-12-20T13:22:58;3.60;;;2.63;;
46363;SDS011;32071;49.036;9.344;2023-12-20T13:25:24;11.50;;;3.73;;
46363;SDS011;32071;49.036;9.344;2023-12-20T13:27:50;32.20;;;15.33;;
46363;SDS011;32071;49.036;9.344;2023-12-20T13:30:18;24.63;;;15.90;;
46363;SDS011;32071;49.036;9.344;2023-12-20T13:32:43;24.83;;;14.63;;
46363;SDS011;32071;49.036;9.344;2023-12-20T13:35:09;6.70;;;4.97;;
46363;SDS011;32071;49.036;9.344;2023-12-20T13:37:34;5.20;;;2.20;;
46363;SDS011;32071;49.036;9.344;2023-12-20T13:40:00;9.43;;;3.00;;
46363;SDS011;32071;49.036;9.344;2023-12-20T13:42:27;4.70;;;3.00;;
46363;SDS011;32071;49.036;9.344;2023-12-20T13:44:53;5.17;;;2.77;;
46363;SDS011;32071;49.036;9.344;2023-12-20T13:47:19;4.90;;;3.20;;
46363;SDS011;32071;49.036;9.344;2023-12-20T13:49:44;5.50;;;3.17;;
46363;SDS011;32071;49.036;9.344;2023-12-20T13:52:10;7.40;;;3.17;;
46363;SDS011;32071;49.036;9.344;2023-12-20T13:54:36;5.67;;;3.10;;
46363;SDS011;32071;49.036;9.344;2023-12-20T13:57:02;3.67;;;2.70;;
46363;SDS011;32071;49.036;9.344;2023-12-20T13:59:28;7.60;;;3.73;;
46363;SDS011;32071;49.036;9.344;2023-12-20T14:01:54;5.37;;;3.63;;
46363;SDS011;32071;49.036;9.344;2023-12-20T14:04:19;5.30;;;3.17;;
46363;SDS011;32071;49.036;9.344;2023-12-20T14:06:46;4.60;;;3.33;;
46363;SDS011;32071;49.036;9.344;2023-12-20T14:09:12;5.43;;;3.20;;
46363;SDS011;32071;49.036;9.344;2023-12-20T14:11:38;5.83;;;3.10;;
46363;SDS011;32071;49.036;9.344;2023-12-20T14:14:06;4.47;;;3.20;;
46363;SDS011;32071;49.036;9.344;2023-12-20T14:16:32;6.93;;;3.83;;
46363;SDS011;32071;49.036;9.344;2023-12-20T14:18:58;14.57;;;4.90;;
46363;SDS011;32071;49.036;9.344;2023-12-20T14:21:24;10.50;;;5.00;;
46363;SDS011;32071;49.036;9.344;2023-12-20T14:23:49;7.30;;;4.47;;
46363;SDS011;32071;49.036;9.344;2023-12-20T14:26:16;7.83;;;4.10;;
46363;SDS011;32071;49.036;9.344;2023-12-20T14:28:42;9.20;;;5.70;;
46363;SDS011;32071;49.036;9.344;2023-12-20T14:31:08;8.40;;;5.27;;
46363;SDS011;32071;49.036;9.344;2023-12-20T14:33:35;8.50;;;5.10;;
46363;SDS011;32071;49.036;9.344;2023-12-20T14:36:01;6.10;;;4.57;;
46363;SDS011;32071;49.036;9.344;2023-12-20T14:38:30;7.73;;;4.20;;
46363;SDS011;32071;49.036;9.344;2023-12-20T14:40:56;6.70;;;3.47;;
46363;SDS011;32071;49.036;9.344;2023-12-20T14:43:21;5.07;;;4.30;;